Time,TemperatureF,DewpointF,PressureIn,WindDirection,WindDirectionDegrees,WindSpeedMPH,WindSpeedGustMPH,Humidity,HourlyPrecipIn,Conditions,Clouds,dailyrainin,SoftwareType,DateUTC
2014-12-29 00:21:00,46.0,40.0,-100.00,NE,56,3.0,7.0,78,0.00,,,0.03,,2014-12-29 08:21:00,
2014-12-29 00:42:00,46.0,39.0,-100.00,NE,55,3.0,5.0,77,0.00,,,0.03,,2014-12-29 08:42:00,
2014-12-29 00:52:00,46.0,40.0,-100.00,NE,37,1.0,2.0,78,0.00,,,0.03,,2014-12-29 08:52:00,
2014-12-29 01:12:00,46.0,39.0,-100.00,East,79,2.0,8.0,76,0.00,,,0.03,,2014-12-29 09:12:00,
2014-12-29 01:23:00,46.0,39.0,-100.00,NE,46,2.0,8.0,75,0.00,,,0.03,,2014-12-29 09:23:00,
2014-12-29 01:43:00,46.0,38.0,-100.00,ENE,67,6.0,10.0,73,0.00,,,0.03,,2014-12-29 09:43:00,
2014-12-29 01:53:00,47.0,39.0,-100.00,ENE,64,3.0,8.0,75,0.00,,,0.03,,2014-12-29 09:53:00,
2014-12-29 02:13:00,47.0,38.0,-100.00,NE,51,4.0,10.0,72,0.00,,,0.03,,2014-12-29 10:13:00,
2014-12-29 02:22:00,47.0,38.0,-100.00,NE,53,4.0,8.0,71,0.00,,,0.03,,2014-12-29 10:22:00,
2014-12-29 02:53:00,47.0,39.0,-100.00,NE,50,0.0,4.0,74,0.00,,,0.03,,2014-12-29 10:53:00,
2014-12-29 03:12:00,46.0,39.0,-100.00,ENE,67,3.0,8.0,77,0.01,,,0.04,,2014-12-29 11:12:00,
2014-12-29 03:22:00,46.0,38.0,-100.00,ENE,64,2.0,7.0,74,0.01,,,0.03,,2014-12-29 11:22:00,
2014-12-29 03:52:00,45.0,40.0,-100.00,ENE,62,2.0,4.0,81,0.01,,,0.03,,2014-12-29 11:52:00,
2014-12-29 04:12:00,45.0,39.0,-100.00,ENE,62,1.0,5.0,79,0.00,,,0.03,,2014-12-29 12:12:00,
2014-12-29 04:22:00,45.0,39.0,-100.00,ENE,61,2.0,4.0,80,0.00,,,0.03,,2014-12-29 12:22:00,
2014-12-29 04:42:00,45.0,40.0,-100.00,ENE,64,1.0,4.0,81,0.00,,,0.03,,2014-12-29 12:42:00,
2014-12-29 04:52:00,45.0,40.0,-100.00,ENE,64,0.0,1.0,83,0.00,,,0.03,,2014-12-29 12:52:00,
2014-12-29 05:12:00,44.0,40.0,-100.00,ENE,66,0.0,3.0,85,0.00,,,0.03,,2014-12-29 13:12:00,
2014-12-29 05:22:00,44.0,39.0,-100.00,ENE,60,1.0,4.0,84,0.00,,,0.03,,2014-12-29 13:22:00,
2014-12-29 05:42:00,44.0,40.0,-100.00,ENE,68,1.0,3.0,85,0.00,,,0.03,,2014-12-29 13:42:00,
2014-12-29 05:52:00,44.0,40.0,-100.00,ENE,63,1.0,2.0,87,0.00,,,0.03,,2014-12-29 13:52:00,
2014-12-29 06:11:00,44.0,40.0,-100.00,NE,47,2.0,5.0,86,0.00,,,0.03,,2014-12-29 14:11:00,
2014-12-29 06:22:00,45.0,40.0,-100.00,ENE,70,4.0,7.0,81,0.00,,,0.03,,2014-12-29 14:22:00,
2014-12-29 06:42:00,44.0,39.0,-100.00,ENE,73,1.0,5.0,82,0.00,,,0.03,,2014-12-29 14:42:00,
2014-12-29 06:52:00,44.0,39.0,-100.00,ENE,67,4.0,7.0,82,0.01,,,0.04,,2014-12-29 14:52:00,